Chomutov, Czech Republic
Current Conditions -  °F | °C
As of 12:00 PM on Friday 24 Oct 2014 (Local Time) from LKKV Reporting Station
Scattered Clouds Scattered Clouds  
Wind Chill: 45°   Ceiling: Unl
Heat Index: 45°   Visibility: 6mi
Dew Point: 43°   Wind: 2mph
Humidity: 93%   Direction: NA
Pressure: 30.21"   Gusts: NA
Location:  50.46°N, 13.39°E
Report Text: LKKV 241000Z VRB02KT 9999 SCT011 07/06 Q1023
Loading
Personal Weather Stations






























Interactive Weather Map
Tropical Storm Tracking
New forecast layout! Learn more

10-Day Weather Forecast

Advertisements
Track Severe Weather on mobile